Monroe County (BMG)

 

Airport Diagram
Current Weather/Forecast (VFR Conditions)
METAR KBMG 182253Z 01008KT 10SM FEW070 14/04 A2989 RMK AO2 SLP124 T01390044
TAF KBMG 181739Z 1818/1918 25005KT P6SM SCT040 BKN060 FM182100 24005KT P6SM VCSH SCT040 BKN070 FM190100 00000KT P6SM BKN070

Airport Information

All Charts
General
Chart Name View
AIRPORT DIAGRAM
AIRPORT DIAGRAM
TAKEOFF MINIMUMS
ALTERNATE MINIMUMS
TAKEOFF MINIMUMS
ALTERNATE MINIMUMS
LAHSO
LAHSO

Approaches
Chart Name Download
ILS OR LOC/DME RWY 35
RNAV (GPS) RWY 06
RNAV (GPS) RWY 17
RNAV (GPS) RWY 24
RNAV (GPS) RWY 35
VOR/DME RWY 06
VOR RWY 17
ILS OR LOC/DME RWY 35
RNAV (GPS) RWY 06
RNAV (GPS) RWY 17
RNAV (GPS) RWY 24
RNAV (GPS) RWY 35
VOR/DME RWY 06
VOR RWY 17


Airport Statistics
Departures Arrivals Local
All Collected Stats since June 2016: 77 111 8
2021 Stats: 4 11 0
April Stats: 0 1 0

Inbound Traffic (Arrivals) - 0

No inbound traffic.


Outbound Traffic (Departures) - 0

No outbound traffic.


Local Traffic (Pattern) - 0

No local traffic.